createdAt,value
2023-01-11T00:00:41.513Z,100095.34
2023-01-11T00:03:10.468Z,100095.53
2023-01-11T00:05:39.275Z,100083.03
2023-01-11T00:08:07.439Z,100080.19
2023-01-11T00:10:35.521Z,100079.81
2023-01-11T00:13:04.723Z,100070.19
2023-01-11T00:15:32.493Z,100077.34
2023-01-11T00:18:00.138Z,100072.56
2023-01-11T00:20:29.088Z,100071.19
2023-01-11T00:22:56.669Z,100069.31
2023-01-11T00:25:24.307Z,100062.00
2023-01-11T00:27:51.942Z,100065.38
2023-01-11T00:30:20.014Z,100069.06
2023-01-11T00:32:47.641Z,100069.88
2023-01-11T00:35:15.412Z,100059.06
2023-01-11T00:37:44.401Z,100047.19
2023-01-11T00:40:12.752Z,100036.91
2023-01-11T00:42:58.262Z,100043.16
2023-01-11T00:45:44.652Z,100037.88
2023-01-11T00:48:12.211Z,100034.22
2023-01-11T00:50:41.781Z,100027.88
2023-01-11T00:53:11.027Z,100025.69
2023-01-11T00:55:38.826Z,100031.47
2023-01-11T00:58:06.730Z,100027.69
2023-01-11T01:00:34.296Z,100021.53
2023-01-11T01:03:02.006Z,100014.34
2023-01-11T01:05:29.594Z,100007.47
2023-01-11T01:07:58.169Z,100013.13
2023-01-11T01:10:27.077Z,100023.84
2023-01-11T01:13:12.494Z,100022.66
2023-01-11T01:15:42.825Z,100018.91
2023-01-11T01:18:10.951Z,100025.41
2023-01-11T01:20:38.518Z,100023.56
2023-01-11T01:23:06.171Z,100022.75
2023-01-11T01:25:37.620Z,100024.72
2023-01-11T01:28:05.751Z,100016.06
2023-01-11T01:30:33.853Z,100026.25
2023-01-11T01:33:01.609Z,100020.53
2023-01-11T01:35:29.208Z,100014.94
2023-01-11T01:37:56.863Z,100014.88
2023-01-11T01:40:24.481Z,100020.63
2023-01-11T01:42:55.748Z,100020.00
2023-01-11T01:45:24.907Z,100022.16
2023-01-11T01:47:56.979Z,100014.16
2023-01-11T01:50:28.514Z,100025.13
2023-01-11T01:53:00.617Z,100017.66
2023-01-11T01:55:31.204Z,100024.25
2023-01-11T01:58:02.433Z,100024.66
2023-01-11T02:00:30.835Z,100032.72
2023-01-11T02:03:00.331Z,100019.13
2023-01-11T02:05:28.234Z,100022.94
2023-01-11T02:07:57.466Z,100019.47
2023-01-11T02:10:27.902Z,100014.59
2023-01-11T02:13:01.735Z,100008.59
2023-01-11T02:15:30.404Z,100006.78
2023-01-11T02:17:58.319Z,100007.25
2023-01-11T02:20:43.733Z,100003.66
2023-01-11T02:23:52.390Z,100000.16
2023-01-11T02:26:53.581Z,99993.69
2023-01-11T02:29:32.126Z,99986.84
2023-01-11T02:32:09.860Z,99972.16
2023-01-11T02:34:44.522Z,99959.66
2023-01-11T02:37:28.780Z,99956.00
2023-01-11T02:40:10.011Z,99963.38
2023-01-11T02:42:57.930Z,99971.34
2023-01-11T02:45:40.633Z,99972.66
2023-01-11T02:48:18.881Z,99973.31
2023-01-11T02:50:53.021Z,99970.69
2023-01-11T02:53:28.890Z,99966.59
2023-01-11T02:56:00.649Z,99964.16
2023-01-11T02:58:30.700Z,99968.72
2023-01-11T03:01:00.494Z,99962.69
2023-01-11T03:03:29.478Z,99962.28
2023-01-11T03:06:03.284Z,99951.28
2023-01-11T03:09:09.061Z,99933.34
2023-01-11T03:12:06.205Z,99926.38
2023-01-11T03:14:46.848Z,99929.53
2023-01-11T03:17:27.515Z,99936.97
2023-01-11T03:20:02.206Z,99920.16
2023-01-11T03:22:34.292Z,99913.44
2023-01-11T03:25:12.784Z,99907.56
2023-01-11T03:27:51.746Z,99908.06
2023-01-11T03:30:27.790Z,99893.22
2023-01-11T03:33:04.722Z,99897.25
2023-01-11T03:35:38.794Z,99901.16
2023-01-11T03:38:11.804Z,99887.47
2023-01-11T03:40:43.868Z,99889.44
2023-01-11T03:43:14.567Z,99892.28
2023-01-11T03:45:49.843Z,99889.44
2023-01-11T03:48:23.279Z,99890.91
2023-01-11T03:50:59.538Z,99899.69
2023-01-11T03:53:29.846Z,99896.13
2023-01-11T03:56:00.153Z,99888.28
2023-01-11T03:58:30.389Z,99888.97
2023-01-11T04:00:58.594Z,99890.91
2023-01-11T04:03:28.202Z,99880.94
2023-01-11T04:06:00.269Z,99877.19
2023-01-11T04:08:29.191Z,99873.97
2023-01-11T04:10:56.739Z,99870.09
2023-01-11T04:13:24.385Z,99875.72
2023-01-11T04:15:53.655Z,99871.66
2023-01-11T04:18:21.267Z,99873.81
2023-01-11T04:20:50.235Z,99864.56
2023-01-11T04:23:17.813Z,99866.97
2023-01-11T04:25:45.767Z,99857.38
2023-01-11T04:28:13.357Z,99854.00
2023-01-11T04:30:40.903Z,99852.59
2023-01-11T04:33:10.765Z,99841.47
2023-01-11T04:35:38.512Z,99845.34
2023-01-11T04:38:07.757Z,99837.03
2023-01-11T04:40:35.316Z,99831.25
2023-01-11T04:43:02.404Z,99825.38
2023-01-11T04:45:30.391Z,99831.44
2023-01-11T04:47:59.012Z,99830.16
2023-01-11T04:50:28.099Z,99831.44
2023-01-11T04:52:55.697Z,99829.78
2023-01-11T04:55:24.587Z,99833.84
2023-01-11T04:57:52.232Z,99835.38
2023-01-11T05:00:20.329Z,99831.81
2023-01-11T05:02:47.876Z,99841.47
2023-01-11T05:05:15.436Z,99837.78
2023-01-11T05:07:42.975Z,99825.75
2023-01-11T05:10:11.526Z,99819.66
2023-01-11T05:12:40.445Z,99812.78
2023-01-11T05:15:09.575Z,99811.84
2023-01-11T05:17:37.289Z,99811.28
2023-01-11T05:20:06.771Z,99808.69
2023-01-11T05:22:34.284Z,99817.47
2023-01-11T05:25:01.801Z,99802.34
2023-01-11T05:27:29.411Z,99806.03
2023-01-11T05:29:58.369Z,99800.31
2023-01-11T05:32:26.387Z,99802.16
2023-01-11T05:34:53.905Z,99800.13
2023-01-11T05:37:21.452Z,99795.84
2023-01-11T05:39:49.052Z,99786.97
2023-01-11T05:42:16.867Z,99793.94
2023-01-11T05:45:02.311Z,99792.63
2023-01-11T05:47:31.224Z,99785.44
2023-01-11T05:49:59.855Z,99778.56
2023-01-11T05:52:27.509Z,99789.63
2023-01-11T05:54:55.146Z,99780.59
2023-01-11T05:57:23.114Z,99770.44
2023-01-11T05:59:50.731Z,99777.16
2023-01-11T06:02:18.446Z,99776.16
2023-01-11T06:04:47.486Z,99773.13
2023-01-11T06:07:15.073Z,99778.75
2023-01-11T06:09:42.702Z,99779.75
2023-01-11T06:12:10.979Z,99776.44
2023-01-11T06:14:38.858Z,99783.63
2023-01-11T06:17:06.550Z,99775.88
2023-01-11T06:19:34.426Z,99779.41
2023-01-11T06:22:03.496Z,99773.50
2023-01-11T06:24:31.266Z,99772.13
2023-01-11T06:26:59.103Z,99759.47
2023-01-11T06:29:26.662Z,99758.22
2023-01-11T06:31:54.248Z,99754.44
2023-01-11T06:34:21.769Z,99758.59
2023-01-11T06:36:49.264Z,99756.81
2023-01-11T06:39:18.160Z,99747.81
2023-01-11T06:41:45.887Z,99748.09
2023-01-11T06:44:13.414Z,99747.19
2023-01-11T06:46:41.168Z,99749.66
2023-01-11T06:49:08.965Z,99744.06
2023-01-11T06:51:36.689Z,99745.72
2023-01-11T06:54:04.474Z,99743.13
2023-01-11T06:56:33.372Z,99745.72
2023-01-11T06:59:01.001Z,99737.06
2023-01-11T07:01:31.420Z,99733.38
2023-01-11T07:03:58.935Z,99735.81
2023-01-11T07:06:27.797Z,99734.47
2023-01-11T07:08:55.706Z,99736.31
2023-01-11T07:11:23.338Z,99733.44
2023-01-11T07:13:52.389Z,99739.22
2023-01-11T07:16:19.998Z,99726.25
2023-01-11T07:18:47.657Z,99723.69
2023-01-11T07:21:15.198Z,99729.06
2023-01-11T07:23:43.041Z,99730.09
2023-01-11T07:26:10.657Z,99735.25
2023-01-11T07:28:38.438Z,99738.78
2023-01-11T07:31:09.505Z,99736.09
2023-01-11T07:33:37.119Z,99737.47
2023-01-11T07:36:06.383Z,99745.09
2023-01-11T07:38:34.146Z,99747.41
2023-01-11T07:41:21.707Z,99746.88
2023-01-11T07:43:48.281Z,99742.16
2023-01-11T07:46:17.462Z,99737.28
2023-01-11T07:48:45.087Z,99740.50
2023-01-11T07:51:13.400Z,99744.28
2023-01-11T07:53:40.943Z,99747.00
2023-01-11T07:56:08.668Z,99744.41
2023-01-11T07:58:36.394Z,99745.50
2023-01-11T08:01:04.038Z,99744.69
2023-01-11T08:03:33.238Z,99742.38
2023-01-11T08:06:00.931Z,99745.16
2023-01-11T08:08:28.462Z,99746.50
2023-01-11T08:11:10.043Z,99739.13
2023-01-11T08:13:55.487Z,99732.16
2023-01-11T08:16:23.283Z,99737.13
2023-01-11T08:18:52.306Z,99739.06
2023-01-11T08:21:21.232Z,99738.44
2023-01-11T08:23:48.835Z,99737.34
2023-01-11T08:26:17.920Z,99737.41
2023-01-11T08:28:45.790Z,99735.75
2023-01-11T08:31:13.582Z,99717.81
2023-01-11T08:33:41.260Z,99720.03
2023-01-11T08:36:12.753Z,99713.22
2023-01-11T08:38:41.490Z,99714.53
2023-01-11T08:41:10.814Z,99715.69
2023-01-11T08:43:38.511Z,99717.78
2023-01-11T08:46:06.631Z,99725.75
2023-01-11T08:48:34.471Z,99723.72
2023-01-11T08:51:02.115Z,99727.63
2023-01-11T08:53:31.089Z,99726.59
2023-01-11T08:55:58.878Z,99734.28
2023-01-11T08:58:26.420Z,99737.38
2023-01-11T09:00:54.275Z,99735.94
2023-01-11T09:03:22.022Z,99734.78
2023-01-11T09:05:49.724Z,99735.13
2023-01-11T09:08:17.322Z,99736.88
2023-01-11T09:10:46.261Z,99730.88
2023-01-11T09:13:14.028Z,99733.75
2023-01-11T09:15:42.624Z,99731.28
2023-01-11T09:18:10.334Z,99735.91
2023-01-11T09:20:37.963Z,99730.97
2023-01-11T09:23:05.724Z,99724.59
2023-01-11T09:25:33.612Z,99717.38
2023-01-11T09:28:02.560Z,99721.91
2023-01-11T09:30:30.221Z,99726.88
2023-01-11T09:32:58.184Z,99725.03
2023-01-11T09:35:26.968Z,99727.13
2023-01-11T09:37:56.582Z,99725.69
2023-01-11T09:40:31.095Z,99726.75
2023-01-11T09:43:01.381Z,99734.56
2023-01-11T09:45:31.521Z,99743.88
2023-01-11T09:48:06.754Z,99732.34
2023-01-11T09:50:41.305Z,99738.25
2023-01-11T09:53:22.413Z,99728.38
2023-01-11T09:55:52.839Z,99734.34
2023-01-11T09:58:38.124Z,99734.75
2023-01-11T10:01:17.138Z,99736.69
2023-01-11T10:04:13.864Z,99733.66
2023-01-11T10:06:52.031Z,99744.56
2023-01-11T10:18:27.731Z,99734.22
2023-01-11T10:19:17.003Z,99728.91
2023-01-11T10:21:23.408Z,99725.00
2023-01-11T10:23:57.250Z,99725.00
2023-01-11T10:26:28.998Z,99728.72
2023-01-11T10:29:18.595Z,99728.31
2023-01-11T10:32:09.472Z,99720.13
2023-01-11T10:34:59.626Z,99730.00
2023-01-11T10:37:54.299Z,99730.22
2023-01-11T10:40:35.109Z,99726.81
2023-01-11T10:43:09.340Z,99730.13
2023-01-11T10:45:44.456Z,99730.69
2023-01-11T10:48:22.956Z,99727.59
2023-01-11T10:51:01.553Z,99730.69
2023-01-11T10:53:35.864Z,99739.59
2023-01-11T10:56:13.693Z,99751.41
2023-01-11T10:59:07.618Z,99754.06
2023-01-11T11:01:50.767Z,99754.66
2023-01-11T11:04:48.792Z,99764.31
2023-01-11T11:07:23.596Z,99763.50
2023-01-11T11:10:00.535Z,99755.66
2023-01-11T11:12:31.145Z,99759.41
2023-01-11T11:15:04.632Z,99757.16
2023-01-11T11:17:34.240Z,99739.25
2023-01-11T11:20:01.951Z,99736.34
2023-01-11T11:22:30.832Z,99725.28
2023-01-11T11:25:02.447Z,99716.03
2023-01-11T11:27:35.244Z,99701.47
2023-01-11T11:30:03.324Z,99712.44
2023-01-11T11:32:35.642Z,99711.59
2023-01-11T11:35:04.635Z,99718.03
2023-01-11T11:37:36.131Z,99709.78
2023-01-11T11:40:05.653Z,99716.59
2023-01-11T11:42:33.310Z,99720.72
2023-01-11T11:45:18.188Z,99715.16
2023-01-11T11:48:01.914Z,99702.78
2023-01-11T11:50:43.584Z,99698.63
2023-01-11T11:53:24.541Z,99704.78
2023-01-11T11:55:53.652Z,99704.16
2023-01-11T11:58:24.596Z,99701.06
2023-01-11T12:00:53.505Z,99711.16
2023-01-11T12:03:27.437Z,99704.50
2023-01-11T12:05:58.593Z,99722.66
2023-01-11T12:08:29.175Z,99720.16
2023-01-11T12:10:59.407Z,99719.69
2023-01-11T12:13:30.443Z,99719.84
2023-01-11T12:15:59.408Z,99724.88
2023-01-11T12:18:30.449Z,99722.91
2023-01-11T12:20:58.041Z,99723.97
2023-01-11T12:23:27.407Z,99725.00
2023-01-11T12:26:13.051Z,99732.22
2023-01-11T12:29:05.720Z,99726.31
2023-01-11T12:31:43.909Z,99725.25
2023-01-11T12:34:28.660Z,99731.03
2023-01-11T12:37:04.523Z,99718.25
2023-01-11T12:39:44.039Z,99711.66
2023-01-11T12:42:43.150Z,99721.78
2023-01-11T12:45:20.558Z,99723.00
2023-01-11T12:48:17.785Z,99715.59
2023-01-11T12:50:59.382Z,99719.69
2023-01-11T12:53:39.996Z,99715.59
2023-01-11T12:56:27.793Z,99725.69
2023-01-11T12:59:02.009Z,99726.72
2023-01-11T13:01:46.846Z,99730.03
2023-01-11T13:04:42.422Z,99754.16
2023-01-11T13:07:19.553Z,99744.88
2023-01-11T13:10:01.038Z,99754.34
2023-01-11T13:12:34.949Z,99755.00
2023-01-11T13:15:16.576Z,99759.72
2023-01-11T13:17:52.795Z,99754.16
2023-01-11T13:20:30.925Z,99752.94
2023-01-11T13:23:03.582Z,99744.66
2023-01-11T13:25:33.974Z,99745.06
2023-01-11T13:28:11.131Z,99737.44
2023-01-11T13:30:43.229Z,99743.44
2023-01-11T13:33:17.436Z,99751.91
2023-01-11T13:35:51.739Z,99751.69
2023-01-11T13:38:34.758Z,99751.25
2023-01-11T13:41:15.344Z,99748.81
2023-01-11T13:43:51.213Z,99749.19
2023-01-11T13:46:25.146Z,99746.31
2023-01-11T13:48:56.975Z,99743.25
2023-01-11T13:51:32.236Z,99754.81
2023-01-11T13:54:08.499Z,99762.84
2023-01-11T13:56:42.276Z,99776.69
2023-01-11T13:59:17.302Z,99773.16
2023-01-11T14:01:50.785Z,99785.75
2023-01-11T14:04:24.582Z,99781.44
2023-01-11T14:07:06.129Z,99788.25
2023-01-11T14:10:04.939Z,99794.41
2023-01-11T14:12:46.104Z,99804.56
2023-01-11T14:15:31.712Z,99806.19
2023-01-11T14:18:19.312Z,99803.53
2023-01-11T14:21:00.615Z,99806.81
2023-01-11T14:23:36.920Z,99809.28
2023-01-11T14:26:24.207Z,99807.63
2023-01-11T14:29:06.710Z,99820.00
2023-01-11T14:31:55.134Z,99819.56
2023-01-11T14:34:50.182Z,99820.53
2023-01-11T14:37:53.582Z,99832.72
2023-01-11T14:40:43.962Z,99848.75
2023-01-11T14:43:25.582Z,99840.50
2023-01-11T14:46:09.273Z,99851.38
2023-01-11T14:48:50.761Z,99856.72
2023-01-11T14:51:33.734Z,99863.09
2023-01-11T14:54:07.903Z,99871.78
2023-01-11T14:56:51.006Z,99877.34
2023-01-11T14:59:37.033Z,99880.09
2023-01-11T15:02:15.816Z,99885.41
2023-01-11T15:05:05.505Z,99903.94
2023-01-11T15:07:39.223Z,99911.78
2023-01-11T15:10:46.531Z,99913.38
2023-01-11T15:13:19.446Z,99920.50
2023-01-11T15:16:04.889Z,99915.75
2023-01-11T15:18:33.224Z,99926.69
2023-01-11T15:21:05.872Z,99923.31
2023-01-11T15:23:37.381Z,99927.41
2023-01-11T15:26:09.375Z,99930.66
2023-01-11T15:28:45.447Z,99944.84
2023-01-11T15:31:49.702Z,99943.13
2023-01-11T15:34:24.909Z,99944.59
2023-01-11T15:37:13.464Z,99953.22
2023-01-11T15:39:46.497Z,99960.03
2023-01-11T15:42:55.208Z,99951.78
2023-01-11T15:46:02.919Z,99954.16
2023-01-11T15:48:44.447Z,99966.03
2023-01-11T15:51:31.353Z,99967.06
2023-01-11T15:54:26.934Z,99984.47
2023-01-11T15:57:15.221Z,99977.84
2023-01-11T16:00:21.420Z,99978.28
2023-01-11T16:03:25.292Z,99979.06
2023-01-11T16:05:59.645Z,99972.06
2023-01-11T16:08:33.602Z,99977.34
2023-01-11T16:11:13.071Z,99979.38
2023-01-11T16:13:51.322Z,99981.56
2023-01-11T16:16:23.598Z,99978.22
2023-01-11T16:18:55.510Z,99984.75
2023-01-11T16:21:32.652Z,99988.63
2023-01-11T16:24:00.746Z,99987.66
2023-01-11T16:26:28.551Z,99983.19
2023-01-11T16:28:59.718Z,99986.56
2023-01-11T16:31:56.515Z,99982.84
2023-01-11T16:34:24.671Z,99993.75
2023-01-11T16:36:52.366Z,100005.63
2023-01-11T16:39:23.442Z,100013.69
2023-01-11T16:41:58.345Z,100015.19
2023-01-11T16:44:34.817Z,100020.06
2023-01-11T16:47:11.347Z,100021.00
2023-01-11T16:49:40.871Z,100021.25
2023-01-11T16:52:39.131Z,100024.03
2023-01-11T16:55:20.796Z,100032.59
2023-01-11T16:57:52.974Z,100032.03
2023-01-11T17:00:37.775Z,100031.28
2023-01-11T17:03:22.213Z,100039.97
2023-01-11T17:06:16.112Z,100043.38
2023-01-11T17:08:45.448Z,100045.75
2023-01-11T17:11:24.244Z,100047.56
2023-01-11T17:14:21.896Z,100055.78
2023-01-11T17:16:52.666Z,100049.59
2023-01-11T17:19:24.294Z,100056.91
2023-01-11T17:21:53.723Z,100063.50
2023-01-11T17:24:25.676Z,100060.81
2023-01-11T17:26:55.968Z,100074.38
2023-01-11T17:29:29.329Z,100069.28
2023-01-11T17:32:00.308Z,100081.25
2023-01-11T17:34:32.544Z,100074.31
2023-01-11T17:37:01.402Z,100088.22
2023-01-11T17:39:32.103Z,100087.47
2023-01-11T17:42:20.224Z,100091.53
2023-01-11T17:45:07.021Z,100096.69
2023-01-11T17:47:35.600Z,100101.84
2023-01-11T17:50:05.747Z,100106.03
2023-01-11T17:52:43.826Z,100102.41
2023-01-11T17:55:17.606Z,100104.84
2023-01-11T17:57:46.282Z,100116.22
2023-01-11T18:00:24.421Z,100109.06
2023-01-11T18:02:53.286Z,100124.63
2023-01-11T18:05:25.800Z,100129.13
2023-01-11T18:07:56.043Z,100126.31
2023-01-11T18:10:26.142Z,100127.50
2023-01-11T18:12:56.413Z,100131.94
2023-01-11T18:15:29.925Z,100133.41
2023-01-11T18:17:57.903Z,100151.31
2023-01-11T18:20:38.281Z,100148.28
2023-01-11T18:23:19.807Z,100164.13
2023-01-11T18:25:48.047Z,100158.28
2023-01-11T18:28:30.525Z,100160.47
2023-01-11T18:31:01.893Z,100169.16
2023-01-11T18:33:32.423Z,100176.34
2023-01-11T18:36:03.354Z,100171.41
2023-01-11T18:38:32.649Z,100170.78
2023-01-11T18:41:24.284Z,100172.72
2023-01-11T18:43:52.826Z,100179.69
2023-01-11T18:46:21.902Z,100192.59
2023-01-11T18:48:49.846Z,100183.41
2023-01-11T18:51:22.377Z,100188.81
2023-01-11T18:53:50.064Z,100184.16
2023-01-11T18:56:17.769Z,100168.94
2023-01-11T18:58:45.279Z,100168.47
2023-01-11T19:01:13.329Z,100179.81
2023-01-11T19:03:43.763Z,100172.66
2023-01-11T19:06:14.212Z,100168.50
2023-01-11T19:08:43.173Z,100178.00
2023-01-11T19:11:10.771Z,100177.00
2023-01-11T19:13:38.382Z,100190.69
2023-01-11T19:16:07.185Z,100198.72
2023-01-11T19:18:35.374Z,100207.25
2023-01-11T19:21:07.082Z,100202.56
2023-01-11T19:23:35.177Z,100208.72
2023-01-11T19:26:08.661Z,100222.59
2023-01-11T19:28:37.310Z,100228.47
2023-01-11T19:31:07.933Z,100237.94
2023-01-11T19:33:35.847Z,100235.13
2023-01-11T19:36:06.149Z,100227.44
2023-01-11T19:38:34.190Z,100231.44
2023-01-11T19:41:07.748Z,100214.78
2023-01-11T19:43:40.773Z,100224.75
2023-01-11T19:46:11.450Z,100232.44
2023-01-11T19:48:39.136Z,100229.78
2023-01-11T19:51:09.508Z,100224.78
2023-01-11T19:53:41.527Z,100224.78
2023-01-11T19:56:11.421Z,100223.31
2023-01-11T19:58:44.472Z,100225.63
2023-01-11T20:01:15.683Z,100220.13
2023-01-11T20:03:43.652Z,100219.28
2023-01-11T20:06:12.049Z,100224.97
2023-01-11T20:08:43.018Z,100226.63
2023-01-11T20:11:14.643Z,100222.16
2023-01-11T20:13:43.173Z,100210.97
2023-01-11T20:16:12.849Z,100206.13
2023-01-11T20:18:42.344Z,100207.66
2023-01-11T20:21:11.538Z,100205.34
2023-01-11T20:23:39.604Z,100200.50
2023-01-11T20:26:14.734Z,100213.81
2023-01-11T20:28:47.546Z,100216.00
2023-01-11T20:31:16.159Z,100217.47
2023-01-11T20:33:43.828Z,100220.31
2023-01-11T20:36:13.646Z,100213.31
2023-01-11T20:38:41.336Z,100220.50
2023-01-11T20:41:10.963Z,100225.81
2023-01-11T20:43:40.521Z,100225.00
2023-01-11T20:46:16.669Z,100221.63
2023-01-11T20:48:46.309Z,100213.81
2023-01-11T20:51:14.226Z,100209.66
2023-01-11T20:53:42.780Z,100206.47
2023-01-11T20:56:10.581Z,100190.47
2023-01-11T20:58:38.464Z,100192.16
2023-01-11T21:01:06.659Z,100186.16
2023-01-11T21:03:35.975Z,100181.66
2023-01-11T21:06:03.767Z,100177.34
2023-01-11T21:08:31.821Z,100174.16
2023-01-11T21:11:05.081Z,100177.50
2023-01-11T21:13:33.119Z,100167.34
2023-01-11T21:16:08.503Z,100172.19
2023-01-11T21:18:43.343Z,100173.34
2023-01-11T21:21:13.370Z,100182.19
2023-01-11T21:23:41.310Z,100191.66
2023-01-11T21:26:13.093Z,100177.69
2023-01-11T21:28:42.976Z,100181.34
2023-01-11T21:31:13.112Z,100178.03
2023-01-11T21:33:42.305Z,100168.34
2023-01-11T21:36:14.210Z,100164.69
2023-01-11T21:38:41.775Z,100166.38
2023-01-11T21:41:11.639Z,100161.88
2023-01-11T21:43:39.506Z,100162.19
2023-01-11T21:46:08.979Z,100156.69
2023-01-11T21:48:39.780Z,100160.53
2023-01-11T21:51:11.105Z,100151.84
2023-01-11T21:53:38.882Z,100168.53
2023-01-11T21:56:12.562Z,100163.88
2023-01-11T21:58:50.012Z,100158.53
2023-01-11T22:01:22.202Z,100160.50
2023-01-11T22:03:51.008Z,100149.53
2023-01-11T22:06:21.346Z,100164.53
2023-01-11T22:08:49.261Z,100164.19
2023-01-11T22:11:37.496Z,100172.50
2023-01-11T22:14:06.660Z,100173.50
2023-01-11T22:16:35.272Z,100171.53
2023-01-11T22:19:06.114Z,100179.34
2023-01-11T22:21:38.271Z,100182.66
2023-01-11T22:24:10.193Z,100196.16
2023-01-11T22:26:38.842Z,100194.16
2023-01-11T22:29:14.829Z,100193.84
2023-01-11T22:31:45.664Z,100196.69
2023-01-11T22:34:15.100Z,100190.47
2023-01-11T22:36:45.822Z,100182.84
2023-01-11T22:39:16.072Z,100173.50
2023-01-11T22:41:46.158Z,100174.66
2023-01-11T22:44:14.432Z,100170.34
2023-01-11T22:46:44.295Z,100169.00
2023-01-11T22:49:20.370Z,100169.34
2023-01-11T22:51:53.287Z,100171.13
2023-01-11T22:54:22.898Z,100173.47
2023-01-11T22:56:51.011Z,100173.00
2023-01-11T22:59:18.899Z,100176.00
2023-01-11T23:01:46.593Z,100184.50
2023-01-11T23:04:15.071Z,100178.00
2023-01-11T23:06:43.914Z,100167.31
2023-01-11T23:09:18.682Z,100175.00
2023-01-11T23:12:04.423Z,100159.66
2023-01-11T23:14:33.200Z,100166.84
2023-01-11T23:17:02.823Z,100159.81
2023-01-11T23:19:33.348Z,100150.66
2023-01-11T23:22:01.140Z,100160.28
2023-01-11T23:24:30.739Z,100154.13
2023-01-11T23:27:00.526Z,100141.25
2023-01-11T23:29:30.088Z,100140.22
2023-01-11T23:31:59.023Z,100127.84
2023-01-11T23:34:26.775Z,100130.16
2023-01-11T23:36:55.656Z,100106.81
2023-01-11T23:39:23.848Z,100128.94
2023-01-11T23:42:11.286Z,100127.28
2023-01-11T23:44:39.101Z,100128.44
2023-01-11T23:47:21.174Z,100134.56
2023-01-11T23:49:49.468Z,100125.72
2023-01-11T23:52:17.328Z,100133.50
2023-01-11T23:54:46.025Z,100128.81
2023-01-11T23:57:15.661Z,100125.69
2023-01-11T23:59:43.617Z,100120.81
